createdAt,value
2018-12-01T00:09:17.186Z,7.5
2018-12-01T00:25:54.193Z,7.2
2018-12-01T00:42:31.335Z,7.2
2018-12-01T00:59:08.406Z,7.5
2018-12-01T01:15:45.547Z,7.2
2018-12-01T01:32:22.443Z,6.9
2018-12-01T01:48:59.331Z,6.9
2018-12-01T02:05:36.091Z,6.9
2018-12-01T02:22:12.808Z,6.6
2018-12-01T02:38:49.527Z,6.6
2018-12-01T02:55:26.010Z,6.6
2018-12-01T03:12:02.505Z,6.6
2018-12-01T03:28:38.974Z,6.2
2018-12-01T03:45:15.408Z,6.2
2018-12-01T04:01:51.919Z,6.2
2018-12-01T04:18:28.227Z,6.2
2018-12-01T04:35:04.728Z,6.6
2018-12-01T04:51:41.404Z,6.6
2018-12-01T05:08:18.742Z,6.9
2018-12-01T05:24:55.072Z,6.6
2018-12-01T05:41:31.903Z,6.9
2018-12-01T05:58:08.838Z,6.9
2018-12-01T06:14:46.046Z,6.9
2018-12-01T06:31:22.842Z,7.2
2018-12-01T06:47:59.872Z,6.9
2018-12-01T07:04:37.005Z,7.2
2018-12-01T07:21:14.207Z,7.2
2018-12-01T07:37:51.357Z,7.2
2018-12-01T07:54:28.556Z,7.2
2018-12-01T08:11:05.907Z,7.5
2018-12-01T08:27:44.136Z,7.8
2018-12-01T08:44:21.254Z,8.2
2018-12-01T09:00:59.672Z,8.2
2018-12-01T09:17:37.009Z,8.5
2018-12-01T09:34:21.293Z,8.5
2018-12-01T09:50:53.218Z,8.5
2018-12-01T10:07:31.657Z,8.8
2018-12-01T10:24:10.401Z,8.8
2018-12-01T10:40:48.985Z,9.1
2018-12-01T10:57:27.783Z,9.1
2018-12-01T11:14:06.778Z,9.8
2018-12-01T11:30:46.055Z,9.8
2018-12-01T11:47:25.356Z,10.1
2018-12-01T12:04:04.760Z,10.1
2018-12-01T12:20:43.955Z,9.8
2018-12-01T12:37:23.602Z,10.1
2018-12-01T12:54:02.443Z,9.8
2018-12-01T13:10:41.764Z,10.1
2018-12-01T13:27:21.026Z,10.1
2018-12-01T13:44:00.507Z,10.1
2018-12-01T14:00:39.911Z,10.1
2018-12-01T14:17:19.391Z,10.1
2018-12-01T14:33:58.696Z,9.8
2018-12-01T14:50:37.954Z,9.8
2018-12-01T15:07:17.107Z,9.4
2018-12-01T15:23:56.124Z,9.4
2018-12-01T15:40:34.962Z,9.1
2018-12-01T15:57:16.457Z,9.4
2018-12-01T16:13:55.584Z,9.4
2018-12-01T16:30:31.849Z,9.4
2018-12-01T16:47:10.976Z,9.8
2018-12-01T17:03:50.257Z,9.8
2018-12-01T17:37:08.440Z,9.4
2018-12-01T17:53:47.549Z,9.4
2018-12-01T18:10:26.534Z,9.4
2018-12-01T18:27:05.396Z,9.1
2018-12-01T18:43:44.187Z,9.1
2018-12-01T19:00:22.955Z,8.8
2018-12-01T19:17:01.600Z,8.8
2018-12-01T19:33:39.822Z,8.8
2018-12-01T19:50:18.024Z,8.8
2018-12-01T20:06:56.181Z,9.1
2018-12-01T20:23:34.607Z,9.1
2018-12-01T20:40:12.978Z,9.1
2018-12-01T20:56:51.106Z,8.8
2018-12-01T21:13:29.289Z,8.8
2018-12-01T21:30:07.551Z,8.8
2018-12-01T21:46:45.870Z,8.8
2018-12-01T22:03:24.112Z,9.1
2018-12-01T22:20:02.445Z,9.1
2018-12-01T22:36:41.042Z,9.4
2018-12-01T22:53:19.617Z,9.4
2018-12-01T23:09:58.239Z,9.4
2018-12-01T23:26:36.875Z,9.4
2018-12-01T23:43:15.618Z,9.4
2018-12-01T23:59:54.277Z,9.4
